WetterOnline ( https://www.wetteronline.de )

Wetter aktuell Fraunhof

Aktuelles Wetter: Fürstenzell (480m)

6-stündlich | Neueste Meldungen
Ortszeit Temperatur Wetter
Do, 21.01. 13:00 2.3° C -
Do, 21.01. 7:00 -2.9° C wolkig
Do, 21.01. 1:00 -0.9° C wolkig
Mi, 20.01. 19:00 1.1° C bedeckt
Mi, 20.01. 13:00 -0.0° C Nebel
Mi, 20.01. 7:00 -2.2° C Nebel
Mi, 20.01. 1:00 0.8° C bedeckt
Di, 19.01. 19:00 -0.8° C Schneefall
Ortszeit Temperatur Wetter
Do, 21.01. 16:10 2.8° C wolkig
Do, 21.01. 16:00 2.9° C wolkig
Do, 21.01. 15:50 2.9° C wolkig
Do, 21.01. 15:40 2.1° C wolkig
Do, 21.01. 15:30 1.6° C bewölkt
Do, 21.01. 15:20 1.6° C bewölkt
Do, 21.01. 15:00 1.4° C bedeckt
Do, 21.01. 14:30 1.5° C bewölkt
Do, 21.01. 14:00 1.6° C bedeckt
Do, 21.01. 13:30 1.9° C bedeckt
Do, 21.01. 13:00 2.3° C -
Ortszeit Relative Feuchte Sichtweite
Do, 21.01. 13:00 79% 30 km
Do, 21.01. 7:00 99% 5.0 km
Do, 21.01. 1:00 94% 15 km
Mi, 20.01. 19:00 99% 5.0 km
Mi, 20.01. 13:00 96% 100 m
Mi, 20.01. 7:00 99% <100 m
Mi, 20.01. 1:00 99% 8 km
Di, 19.01. 19:00 99% 0.5 km
Ortszeit Relative Feuchte Sichtweite
Do, 21.01. 16:10 75% -
Do, 21.01. 16:00 77% 27 km
Do, 21.01. 15:50 77% -
Do, 21.01. 15:40 80% -
Do, 21.01. 15:30 80% 20 km
Do, 21.01. 15:20 80% -
Do, 21.01. 15:00 82% 18 km
Do, 21.01. 14:30 82% 19 km
Do, 21.01. 14:00 82% 19 km
Do, 21.01. 13:30 81% 25 km
Do, 21.01. 13:00 79% 30 km
Ortszeit Niederschlagsmenge Niederschlagsart
Do, 21.01. 13:00 keine Meldung -
Do, 21.01. 7:00 0.0 l/m2 in 12 Std. -
Do, 21.01. 1:00 0.0 l/m2 in 6 Std. -
Mi, 20.01. 19:00 0.0 l/m2 in 12 Std. -
Mi, 20.01. 13:00 0.0 l/m2 in 6 Std. -
Mi, 20.01. 7:00 7 l/m2 in 12 Std. -
Mi, 20.01. 1:00 7 l/m2 in 6 Std. Schnee, Regen
Di, 19.01. 19:00 7 l/m2 in 12 Std. Schnee
Ortszeit Niederschlagsmenge Niederschlagsart
Do, 21.01. 16:10 keine Meldung -
Do, 21.01. 16:00 0.0 l/m2 in 1 Std. -
Do, 21.01. 15:50 keine Meldung -
Do, 21.01. 15:40 keine Meldung -
Do, 21.01. 15:30 0.0 l/m2 in 1 Std. -
Do, 21.01. 15:20 keine Meldung -
Do, 21.01. 15:00 0.0 l/m2 in 1 Std. -
Do, 21.01. 14:30 0.0 l/m2 in 1 Std. -
Do, 21.01. 14:00 0.0 l/m2 in 1 Std. -
Do, 21.01. 13:30 0.0 l/m2 in 1 Std. -
Do, 21.01. 13:00 0.0 l/m2 in 1 Std. -
Ortszeit Stärke Spitze Richtung
km/h Bft. km/h Grad Sektor
Do, 21.01. 13:00 11 2 22 130° SO
Do, 21.01. 7:00 9 2 15 40° NO
Do, 21.01. 1:00 7 2 19 50° NO
Mi, 20.01. 19:00 6 1 13 60° NO
Mi, 20.01. 13:00 9 2 17 40° NO
Mi, 20.01. 7:00 11 2 18 50° NO
Mi, 20.01. 1:00 4 1 11 160° S
Di, 19.01. 19:00 4 1 18 60° NO
Ortszeit Stärke Spitze Richtung
km/h Bft. km/h Grad Sektor
Do, 21.01. 16:10 4 1 - 100° O
Do, 21.01. 16:00 4 1 18 90° O
Do, 21.01. 15:50 4 1 - 90° O
Do, 21.01. 15:40 6 1 - 80° O
Do, 21.01. 15:30 7 2 18 110° O
Do, 21.01. 15:20 7 2 - 110° O
Do, 21.01. 15:00 7 2 17 150° SO
Do, 21.01. 14:30 7 2 18 150° SO
Do, 21.01. 14:00 7 2 18 160° S
Do, 21.01. 13:30 11 2 14 130° SO
Do, 21.01. 13:00 11 2 22 130° SO
Ortszeit Untergrenze Bedeckung Gattung
total tief tief mittel hoch
Do, 21.01. 13:00 - - - - - -
Do, 21.01. 7:00 <30 m 8/8 0/8 - - -
Do, 21.01. 1:00 9000 m 8/8 0/8 - - -
Mi, 20.01. 19:00 4500 m 8/8 8/8 - - -
Mi, 20.01. 13:00 <30 m 7/8 0/8 - - -
Mi, 20.01. 7:00 <30 m 8/8 0/8 - - -
Mi, 20.01. 1:00 120 m 8/8 8/8 - - -
Di, 19.01. 19:00 <30 m 8/8 0/8 - - -
Ortszeit Bedeckungsgrad in Achtel und Wolkenuntergrenze
Do, 21.01. 16:10 3(2700m) 8(3900m)
Do, 21.01. 16:00 2(2700m) 8(3900m) 8(4200m)
Do, 21.01. 15:50 2(2700m) 8(3900m) 8(4200m)
Do, 21.01. 15:40 3(2700m) 7(3600m) 8(4200m)
Do, 21.01. 15:30 5(2400m) 8(3300m) 8(4200m)
Do, 21.01. 15:20 5(2400m) 8(3300m) 8(4200m)
Do, 21.01. 15:00 8(2400m) 8(3000m) 8(3900m)
Do, 21.01. 14:30 7(2700m) 8(3900m)
Do, 21.01. 14:00 8(2700m) 8(3900m) 8(3900m)
Do, 21.01. 13:30 8(2700m) 8(3300m) 8(3900m)
Do, 21.01. 13:00 -
Ortszeit Luftdruck NN (hPa) Tendenz (hPa in 3 Std.)
Do, 21.01. 13:00 1007 - 0,7
Do, 21.01. 7:00 1008 - 0,3
Do, 21.01. 1:00 1008 - 0,7
Mi, 20.01. 19:00 1010 - 0,8
Mi, 20.01. 13:00 1013 - 2,1
Mi, 20.01. 7:00 1016 - 0,3
Mi, 20.01. 1:00 1016 - 0,8
Di, 19.01. 19:00 1017 + 0,2
Ortszeit Luftdruck NN (hPa) Tendenz (hPa in 3 Std.)
Do, 21.01. 16:10 1005 keine Meldung
Do, 21.01. 16:00 1006 - 0,7
Do, 21.01. 15:50 1006 keine Meldung
Do, 21.01. 15:40 1006 keine Meldung
Do, 21.01. 15:30 1006 - 0,9
Do, 21.01. 15:20 1006 keine Meldung
Do, 21.01. 15:00 1006 - 1,1
Do, 21.01. 14:30 1006 - 1,3
Do, 21.01. 14:00 1006 - 1,4
Do, 21.01. 13:30 1006 - 1,1
Do, 21.01. 13:00 1007 - 0,7
Ortszeit Schneehöhe (cm)
Do, 21.01. 13:00 -
Do, 21.01. 7:00 22
Do, 21.01. 1:00 22
Mi, 20.01. 19:00 22
Mi, 20.01. 13:00 23
Mi, 20.01. 7:00 24
Mi, 20.01. 1:00 24
Di, 19.01. 19:00 24
Ortszeit Schneehöhe (cm)
Do, 21.01. 16:10 21
Do, 21.01. 16:00 21
Do, 21.01. 15:50 21
Do, 21.01. 15:40 21
Do, 21.01. 15:30 21
Do, 21.01. 15:20 21
Do, 21.01. 15:00 21
Do, 21.01. 14:30 21
Do, 21.01. 14:00 21
Do, 21.01. 13:30 21
Do, 21.01. 13:00 22
Link zu dieser Seite / Seite empfehlen

Das Wetter in ...